sensor_id;sensor_type;location;lat;lon;timestamp;P1;durP1;ratioP1;P2;durP2;ratioP2
79779;SDS011;69258;52.050;10.334;2023-04-15T00:14:32;58.33;;;36.77;;
79779;SDS011;69258;52.050;10.334;2023-04-15T00:29:34;54.87;;;34.03;;
79779;SDS011;69258;52.050;10.334;2023-04-15T00:44:36;47.63;;;29.60;;
79779;SDS011;69258;52.050;10.334;2023-04-15T00:59:38;37.33;;;25.00;;
79779;SDS011;69258;52.050;10.334;2023-04-15T01:14:40;32.20;;;21.40;;
79779;SDS011;69258;52.050;10.334;2023-04-15T01:29:41;27.13;;;18.33;;
79779;SDS011;69258;52.050;10.334;2023-04-15T01:44:43;24.80;;;16.20;;
79779;SDS011;69258;52.050;10.334;2023-04-15T01:59:45;23.10;;;15.37;;
79779;SDS011;69258;52.050;10.334;2023-04-15T02:14:46;18.53;;;12.87;;
79779;SDS011;69258;52.050;10.334;2023-04-15T02:29:48;18.20;;;12.20;;
79779;SDS011;69258;52.050;10.334;2023-04-15T02:44:50;15.37;;;11.03;;
79779;SDS011;69258;52.050;10.334;2023-04-15T02:59:52;15.13;;;10.80;;
79779;SDS011;69258;52.050;10.334;2023-04-15T03:14:53;15.03;;;9.53;;
79779;SDS011;69258;52.050;10.334;2023-04-15T03:29:55;11.67;;;8.17;;
79779;SDS011;69258;52.050;10.334;2023-04-15T03:44:57;11.63;;;7.93;;
79779;SDS011;69258;52.050;10.334;2023-04-15T03:59:58;9.57;;;7.30;;
79779;SDS011;69258;52.050;10.334;2023-04-15T04:15:00;8.83;;;6.63;;
79779;SDS011;69258;52.050;10.334;2023-04-15T04:30:02;8.60;;;6.10;;
79779;SDS011;69258;52.050;10.334;2023-04-15T04:45:04;8.90;;;5.73;;
79779;SDS011;69258;52.050;10.334;2023-04-15T05:00:06;6.50;;;5.10;;
79779;SDS011;69258;52.050;10.334;2023-04-15T05:15:08;6.27;;;4.57;;
79779;SDS011;69258;52.050;10.334;2023-04-15T05:30:11;6.83;;;4.60;;
79779;SDS011;69258;52.050;10.334;2023-04-15T05:45:14;6.43;;;4.47;;
79779;SDS011;69258;52.050;10.334;2023-04-15T06:00:15;4.80;;;3.77;;
79779;SDS011;69258;52.050;10.334;2023-04-15T06:15:17;4.47;;;4.00;;
79779;SDS011;69258;52.050;10.334;2023-04-15T06:30:19;5.57;;;3.37;;
79779;SDS011;69258;52.050;10.334;2023-04-15T06:45:24;4.83;;;3.03;;
79779;SDS011;69258;52.050;10.334;2023-04-15T07:00:26;3.90;;;3.20;;
79779;SDS011;69258;52.050;10.334;2023-04-15T07:15:27;4.03;;;3.30;;
79779;SDS011;69258;52.050;10.334;2023-04-15T07:30:29;3.13;;;2.73;;
79779;SDS011;69258;52.050;10.334;2023-04-15T07:45:31;4.93;;;2.90;;
79779;SDS011;69258;52.050;10.334;2023-04-15T08:00:33;2.53;;;2.30;;
79779;SDS011;69258;52.050;10.334;2023-04-15T08:15:34;2.80;;;2.50;;
79779;SDS011;69258;52.050;10.334;2023-04-15T08:30:36;3.03;;;2.40;;
79779;SDS011;69258;52.050;10.334;2023-04-15T08:45:38;3.07;;;2.27;;
79779;SDS011;69258;52.050;10.334;2023-04-15T09:00:40;2.13;;;1.93;;
79779;SDS011;69258;52.050;10.334;2023-04-15T09:15:42;2.33;;;2.13;;
79779;SDS011;69258;52.050;10.334;2023-04-15T09:30:44;2.00;;;1.80;;
79779;SDS011;69258;52.050;10.334;2023-04-15T09:45:49;10.10;;;2.30;;
79779;SDS011;69258;52.050;10.334;2023-04-15T10:00:53;2.67;;;2.00;;
79779;SDS011;69258;52.050;10.334;2023-04-15T10:15:56;2.07;;;1.77;;
79779;SDS011;69258;52.050;10.334;2023-04-15T10:31:00;4.50;;;1.60;;
79779;SDS011;69258;52.050;10.334;2023-04-15T10:46:04;2.50;;;1.77;;
79779;SDS011;69258;52.050;10.334;2023-04-15T11:01:06;2.60;;;1.80;;
79779;SDS011;69258;52.050;10.334;2023-04-15T11:16:08;2.57;;;2.30;;
79779;SDS011;69258;52.050;10.334;2023-04-15T11:31:11;2.40;;;2.20;;
79779;SDS011;69258;52.050;10.334;2023-04-15T11:46:14;6.27;;;3.00;;
79779;SDS011;69258;52.050;10.334;2023-04-15T12:01:16;5.30;;;3.50;;
79779;SDS011;69258;52.050;10.334;2023-04-15T12:16:18;5.93;;;4.40;;
79779;SDS011;69258;52.050;10.334;2023-04-15T12:31:20;4.90;;;4.40;;
79779;SDS011;69258;52.050;10.334;2023-04-15T12:46:22;6.33;;;5.07;;
79779;SDS011;69258;52.050;10.334;2023-04-15T13:01:24;5.23;;;4.73;;
79779;SDS011;69258;52.050;10.334;2023-04-15T13:16:26;7.07;;;5.20;;
79779;SDS011;69258;52.050;10.334;2023-04-15T13:31:28;6.47;;;5.60;;
79779;SDS011;69258;52.050;10.334;2023-04-15T13:46:30;9.00;;;5.47;;
79779;SDS011;69258;52.050;10.334;2023-04-15T14:01:32;6.60;;;5.87;;
79779;SDS011;69258;52.050;10.334;2023-04-15T14:16:34;6.23;;;5.63;;
79779;SDS011;69258;52.050;10.334;2023-04-15T14:31:36;5.77;;;5.17;;
79779;SDS011;69258;52.050;10.334;2023-04-15T14:46:41;8.67;;;5.70;;
79779;SDS011;69258;52.050;10.334;2023-04-15T15:01:43;7.50;;;5.87;;
79779;SDS011;69258;52.050;10.334;2023-04-15T15:16:44;6.93;;;6.07;;
79779;SDS011;69258;52.050;10.334;2023-04-15T15:31:47;6.77;;;5.70;;
79779;SDS011;69258;52.050;10.334;2023-04-15T15:46:49;7.20;;;6.03;;
79779;SDS011;69258;52.050;10.334;2023-04-15T16:01:51;6.17;;;5.13;;
79779;SDS011;69258;52.050;10.334;2023-04-15T16:16:53;6.03;;;5.40;;
79779;SDS011;69258;52.050;10.334;2023-04-15T16:31:55;5.20;;;4.70;;
79779;SDS011;69258;52.050;10.334;2023-04-15T16:46:57;6.23;;;5.33;;
79779;SDS011;69258;52.050;10.334;2023-04-15T17:02:01;7.63;;;5.33;;
79779;SDS011;69258;52.050;10.334;2023-04-15T17:17:03;7.60;;;6.90;;
79779;SDS011;69258;52.050;10.334;2023-04-15T17:32:05;24.90;;;17.63;;
79779;SDS011;69258;52.050;10.334;2023-04-15T17:47:06;40.87;;;27.40;;
79779;SDS011;69258;52.050;10.334;2023-04-15T18:02:08;75.30;;;44.63;;
79779;SDS011;69258;52.050;10.334;2023-04-15T18:17:10;86.73;;;50.27;;
79779;SDS011;69258;52.050;10.334;2023-04-15T18:32:12;94.93;;;56.63;;
79779;SDS011;69258;52.050;10.334;2023-04-15T18:47:14;115.53;;;64.07;;
79779;SDS011;69258;52.050;10.334;2023-04-15T19:02:16;116.43;;;67.70;;
79779;SDS011;69258;52.050;10.334;2023-04-15T19:17:18;125.93;;;71.17;;
79779;SDS011;69258;52.050;10.334;2023-04-15T19:32:19;132.63;;;77.33;;
79779;SDS011;69258;52.050;10.334;2023-04-15T19:47:21;136.40;;;82.33;;
79779;SDS011;69258;52.050;10.334;2023-04-15T20:02:23;138.77;;;81.93;;
79779;SDS011;69258;52.050;10.334;2023-04-15T20:17:25;133.17;;;80.90;;
79779;SDS011;69258;52.050;10.334;2023-04-15T20:32:27;135.23;;;82.77;;
79779;SDS011;69258;52.050;10.334;2023-04-15T20:47:29;134.77;;;83.53;;
79779;SDS011;69258;52.050;10.334;2023-04-15T21:02:31;129.93;;;82.03;;
79779;SDS011;69258;52.050;10.334;2023-04-15T21:17:33;131.30;;;82.70;;
79779;SDS011;69258;52.050;10.334;2023-04-15T21:32:35;130.17;;;82.17;;
79779;SDS011;69258;52.050;10.334;2023-04-15T21:47:37;134.80;;;83.67;;
79779;SDS011;69258;52.050;10.334;2023-04-15T22:02:59;136.53;;;85.03;;
79779;SDS011;69258;52.050;10.334;2023-04-15T22:18:01;125.63;;;80.97;;
79779;SDS011;69258;52.050;10.334;2023-04-15T22:33:02;124.13;;;78.73;;
79779;SDS011;69258;52.050;10.334;2023-04-15T22:48:04;118.17;;;74.13;;
79779;SDS011;69258;52.050;10.334;2023-04-15T23:03:06;108.50;;;69.53;;
79779;SDS011;69258;52.050;10.334;2023-04-15T23:18:08;100.10;;;65.50;;
79779;SDS011;69258;52.050;10.334;2023-04-15T23:33:10;79.77;;;54.27;;
79779;SDS011;69258;52.050;10.334;2023-04-15T23:48:12;76.60;;;51.70;;
